الصفحة الرئيسية
METAR-TAF:

METAR-TAF

مطار :

مطار ماكاران الدولي

لاس فيغاس, نيفادا, الولايات المتحدة

دائرة عرض: 36-04-44N, خط طول: 115-09-19W, ارتفاع: 663 متر

مراقبة الطقس الحالي

تاريخ ووقت الإصدار 55 دقيقة قبل الساعة 08:56UTC
ريح 3 عقدة من الجنوب
درجة الحرارة 30°درجة مئوية
الرطوبة 19%
ضغط 1009 hPa
الرؤية: 16.1 كم
سماء صافية

METAR: KLAS 250856Z 19003KT 10SM CLR 30/04 A2980 RMK AO2 SLP060 T03000039 53005

زمن: 02:51 (09:51 UTC)

توقعات

تاريخ ووقت الإصدار 1ساعة و 9 دقيقة قبل الساعة 08:42UTC
التوقعات صالحة من25 الساعة 09 UTC إلى 26 الساعة 12 UTC
ريح 8 عقدة من الجنوب
الرؤية: 10 كم
سماء صافية
من 25 الساعة 1200 UTC
ريح 5 عقدةمن اتجاهات متغيرة
الرؤية: 10 كم
سماء صافية
من 25 الساعة 2000 UTC
ريح 9 عقدة من الجنوب/الجنوب الشرقي
الرؤية: 10 كم
سماء صافية
من 26 الساعة 0100 UTC
ريح 11 عقدة من الجنوب/الجنوب الغربي
الرؤية: 10 كم
سماء صافية
من 26 الساعة 1100 UTC
ريح 5 عقدةمن اتجاهات متغيرة
الرؤية: 10 كم
سماء صافية

TAF: KLAS 250842Z 2509/2612 18008KT P6SM SKC FM251200 VRB05KT P6SM SKC FM252000 15009KT P6SM SKC FM260100 20011KT P6SM SKC FM261100 VRB05KT P6SM SKC

أرصاد الطقس والتوقعات من أكثر من 4000 مطار (تقارير الطقس للمطار METAR والتنبؤ بالطقس بالمطارTAF).

المحطات المتاحة هي النقط الصفراء والحمراء على الخريطة.

حرك المؤشر فوق النقطة لمعرفة اسم المحطة.

ثم انقر لمعرفة أرصاد وتوقعات الطقس.

لتغيير الخارطة: اضغط على الأزرار الخضراء مع رمز الصليب الأسود للتكبير. على الزر الأخضر مع شرطة للتصغير، أو على الأسهم الخضراء للخرائط المجاورة.


METAR-TAF: